createdAt,value
2024-02-11T00:01:50.017Z,13.31
2024-02-11T00:04:16.713Z,13.34
2024-02-11T00:06:43.488Z,13.46
2024-02-11T00:09:10.163Z,13.79
2024-02-11T00:11:37.053Z,14.03
2024-02-11T00:14:03.843Z,14.28
2024-02-11T00:16:31.306Z,14.34
2024-02-11T00:18:58.048Z,14.33
2024-02-11T00:21:25.013Z,15.46
2024-02-11T00:23:51.602Z,15.41
2024-02-11T00:26:18.348Z,15.62
2024-02-11T00:28:45.029Z,15.85
2024-02-11T00:31:12.685Z,15.39
2024-02-11T00:33:40.828Z,15.64
2024-02-11T00:36:09.070Z,15.62
2024-02-11T00:38:36.092Z,15.87
2024-02-11T00:41:05.136Z,15.27
2024-02-11T00:43:32.005Z,15.01
2024-02-11T00:45:58.618Z,15.16
2024-02-11T00:48:26.507Z,15.23
2024-02-11T00:50:53.206Z,14.85
2024-02-11T00:53:19.945Z,14.75
2024-02-11T00:55:47.042Z,14.78
2024-02-11T00:58:14.268Z,14.92
2024-02-11T01:00:40.971Z,14.44
2024-02-11T01:03:07.751Z,13.75
2024-02-11T01:05:37.383Z,13.97
2024-02-11T01:08:04.209Z,14.15
2024-02-11T01:10:33.319Z,13.76
2024-02-11T01:13:00.334Z,13.80
2024-02-11T01:15:27.849Z,14.53
2024-02-11T01:17:54.724Z,14.64
2024-02-11T01:20:22.434Z,14.86
2024-02-11T01:22:49.247Z,14.30
2024-02-11T01:25:25.529Z,15.53
2024-02-11T01:27:52.185Z,14.97
2024-02-11T01:30:19.307Z,15.01
2024-02-11T01:32:46.462Z,15.24
2024-02-11T01:35:15.864Z,15.27
2024-02-11T01:37:43.116Z,15.57
2024-02-11T01:40:13.136Z,15.07
2024-02-11T01:42:40.265Z,15.50
2024-02-11T01:45:08.406Z,15.18
2024-02-11T01:47:37.253Z,15.61
2024-02-11T01:50:10.066Z,15.36
2024-02-11T01:52:37.734Z,15.20
2024-02-11T01:55:05.912Z,15.23
2024-02-11T01:57:34.172Z,15.14
2024-02-11T02:00:02.592Z,14.88
2024-02-11T02:02:31.699Z,15.46
2024-02-11T02:05:00.578Z,15.41
2024-02-11T02:07:27.419Z,15.40
2024-02-11T02:09:55.261Z,15.51
2024-02-11T02:12:22.107Z,15.32
2024-02-11T02:14:51.828Z,15.13
2024-02-11T02:17:18.655Z,14.89
2024-02-11T02:19:45.365Z,14.84
2024-02-11T02:22:12.319Z,14.96
2024-02-11T02:24:38.933Z,15.72
2024-02-11T02:27:07.036Z,15.21
2024-02-11T02:29:34.310Z,15.10
2024-02-11T02:32:01.024Z,15.39
2024-02-11T02:34:29.502Z,15.12
2024-02-11T02:36:56.128Z,14.99
2024-02-11T02:39:23.578Z,15.31
2024-02-11T02:41:50.288Z,14.97
2024-02-11T02:44:17.183Z,15.37
2024-02-11T02:46:43.945Z,15.29
2024-02-11T02:49:10.694Z,15.37
2024-02-11T02:51:37.372Z,15.10
2024-02-11T02:54:04.822Z,15.80
2024-02-11T02:56:33.227Z,15.84
2024-02-11T02:58:59.936Z,16.06
2024-02-11T03:01:27.531Z,16.13
2024-02-11T03:03:54.276Z,15.93
2024-02-11T03:06:21.110Z,15.79
2024-02-11T03:08:48.894Z,15.34
2024-02-11T03:11:15.586Z,15.46
2024-02-11T03:13:44.286Z,15.49
2024-02-11T03:16:12.165Z,15.59
2024-02-11T03:18:41.913Z,15.77
2024-02-11T03:21:08.542Z,15.78
2024-02-11T03:23:36.999Z,15.49
2024-02-11T03:26:03.669Z,15.22
2024-02-11T03:28:30.245Z,15.83
2024-02-11T03:30:58.788Z,15.67
2024-02-11T03:33:25.519Z,15.69
2024-02-11T03:35:52.183Z,15.69
2024-02-11T03:38:19.489Z,15.64
2024-02-11T03:40:46.223Z,15.99
2024-02-11T03:43:14.564Z,16.15
2024-02-11T03:45:41.198Z,16.43
2024-02-11T03:48:08.751Z,16.09
2024-02-11T03:50:35.630Z,15.59
2024-02-11T03:53:03.069Z,15.50
2024-02-11T03:55:30.940Z,16.03
2024-02-11T03:58:02.858Z,15.86
2024-02-11T04:00:31.491Z,16.10
2024-02-11T04:03:01.657Z,15.63
2024-02-11T04:05:30.117Z,15.51
2024-02-11T04:07:57.598Z,15.94
2024-02-11T04:10:29.227Z,15.41
2024-02-11T04:12:57.292Z,15.66
2024-02-11T04:15:24.121Z,15.55
2024-02-11T04:17:54.840Z,15.79
2024-02-11T04:20:32.945Z,15.12
2024-02-11T04:23:01.476Z,15.66
2024-02-11T04:25:30.610Z,16.49
2024-02-11T04:27:57.569Z,16.25
2024-02-11T04:30:25.360Z,16.30
2024-02-11T04:32:52.417Z,16.74
2024-02-11T04:35:20.350Z,16.15
2024-02-11T04:37:56.548Z,16.22
2024-02-11T04:40:27.348Z,16.55
2024-02-11T04:42:55.506Z,16.74
2024-02-11T04:45:23.342Z,16.18
2024-02-11T04:47:51.333Z,16.62
2024-02-11T04:50:18.105Z,15.13
2024-02-11T04:52:49.912Z,16.46
2024-02-11T04:55:19.709Z,15.55
2024-02-11T04:57:46.314Z,15.75
2024-02-11T05:00:25.024Z,15.95
2024-02-11T05:02:52.548Z,16.08
2024-02-11T05:05:26.830Z,16.27
2024-02-11T05:07:54.489Z,15.28
2024-02-11T05:10:22.913Z,14.96
2024-02-11T05:12:50.868Z,15.53
2024-02-11T05:15:21.622Z,15.49
2024-02-11T05:17:50.147Z,15.31
2024-02-11T05:20:26.968Z,15.37
2024-02-11T05:22:56.250Z,15.75
2024-02-11T05:25:24.321Z,15.10
2024-02-11T05:27:56.849Z,15.10
2024-02-11T05:30:25.026Z,15.20
2024-02-11T05:32:55.948Z,14.64
2024-02-11T05:35:24.751Z,15.20
2024-02-11T05:38:02.443Z,14.95
2024-02-11T05:40:30.324Z,14.54
2024-02-11T05:42:57.681Z,15.29
2024-02-11T05:45:24.832Z,14.68
2024-02-11T05:47:52.579Z,14.33
2024-02-11T05:50:21.180Z,14.88
2024-02-11T05:52:48.449Z,14.94
2024-02-11T05:55:19.589Z,15.94
2024-02-11T05:57:47.745Z,15.32
2024-02-11T06:00:15.575Z,16.09
2024-02-11T06:02:43.594Z,16.10
2024-02-11T06:05:13.652Z,16.03
2024-02-11T06:07:41.199Z,16.16
2024-02-11T06:10:14.141Z,15.88
2024-02-11T06:12:41.011Z,14.74
2024-02-11T06:15:21.361Z,14.54
2024-02-11T06:17:52.329Z,13.70
2024-02-11T06:20:20.026Z,11.14
2024-02-11T06:22:47.821Z,10.19
2024-02-11T06:25:17.128Z,9.67
2024-02-11T06:27:43.923Z,9.11
2024-02-11T06:30:14.133Z,8.05
2024-02-11T06:32:42.571Z,7.50
2024-02-11T06:35:10.759Z,7.23
2024-02-11T06:37:39.393Z,7.88
2024-02-11T06:40:11.969Z,7.60
2024-02-11T06:42:39.090Z,8.25
2024-02-11T06:45:09.212Z,9.51
2024-02-11T06:47:42.655Z,10.07
2024-02-11T06:50:10.758Z,10.50
2024-02-11T06:52:37.747Z,10.94
2024-02-11T06:55:06.040Z,11.18
2024-02-11T06:57:33.688Z,9.98
2024-02-11T07:00:00.368Z,9.44
2024-02-11T07:02:29.623Z,7.94
2024-02-11T07:04:57.012Z,7.83
2024-02-11T07:07:25.603Z,8.24
2024-02-11T07:09:52.343Z,9.14
2024-02-11T07:12:20.705Z,9.23
2024-02-11T07:14:48.001Z,9.49
2024-02-11T07:17:20.976Z,9.89
2024-02-11T07:19:49.434Z,10.13
2024-02-11T07:22:16.124Z,10.42
2024-02-11T07:24:42.762Z,9.97
2024-02-11T07:27:15.572Z,10.19
2024-02-11T07:29:42.998Z,10.62
2024-02-11T07:32:09.963Z,12.23
2024-02-11T07:34:36.840Z,13.31
2024-02-11T07:37:04.065Z,15.03
2024-02-11T07:39:30.970Z,13.85
2024-02-11T07:41:57.849Z,14.16
2024-02-11T07:44:24.822Z,14.97
2024-02-11T07:46:54.675Z,15.67
2024-02-11T07:49:21.942Z,15.99
2024-02-11T07:51:52.489Z,16.90
2024-02-11T07:54:20.364Z,19.63
2024-02-11T07:56:47.336Z,18.91
2024-02-11T07:59:14.376Z,15.67
2024-02-11T08:01:41.718Z,15.12
2024-02-11T08:04:08.557Z,15.14
2024-02-11T08:06:35.586Z,14.64
2024-02-11T08:09:03.076Z,14.84
2024-02-11T08:11:34.379Z,12.43
2024-02-11T08:14:01.179Z,12.27
2024-02-11T08:16:27.868Z,11.19
2024-02-11T08:18:57.665Z,10.67
2024-02-11T08:21:24.421Z,9.78
2024-02-11T08:23:51.044Z,10.47
2024-02-11T08:26:18.620Z,9.93
2024-02-11T08:28:45.842Z,9.53
2024-02-11T08:31:12.801Z,9.39
2024-02-11T08:33:44.194Z,9.34
2024-02-11T08:36:11.001Z,8.84
2024-02-11T08:38:37.582Z,9.04
2024-02-11T08:41:04.469Z,8.16
2024-02-11T08:43:31.093Z,7.93
2024-02-11T08:46:04.492Z,7.83
2024-02-11T08:48:32.527Z,7.80
2024-02-11T08:51:01.438Z,7.47
2024-02-11T08:53:29.859Z,7.57
2024-02-11T08:55:56.577Z,8.04
2024-02-11T08:58:23.212Z,8.22
2024-02-11T09:00:50.006Z,8.15
2024-02-11T09:03:16.836Z,8.14
2024-02-11T09:05:43.470Z,7.92
2024-02-11T09:08:10.189Z,7.41
2024-02-11T09:10:36.888Z,8.08
2024-02-11T09:13:03.521Z,7.89
2024-02-11T09:15:30.085Z,8.29
2024-02-11T09:17:58.674Z,8.61
2024-02-11T09:20:25.451Z,8.37
2024-02-11T09:22:52.729Z,8.79
2024-02-11T09:25:19.412Z,8.67
2024-02-11T09:27:47.020Z,8.79
2024-02-11T09:30:16.509Z,8.77
2024-02-11T09:32:43.279Z,9.09
2024-02-11T09:35:10.919Z,9.48
2024-02-11T09:37:37.717Z,9.74
2024-02-11T09:40:04.562Z,9.91
2024-02-11T09:42:31.806Z,10.48
2024-02-11T09:44:59.896Z,9.79
2024-02-11T09:47:26.709Z,10.06
2024-02-11T09:49:55.071Z,10.81
2024-02-11T09:52:23.007Z,10.97
2024-02-11T09:54:50.163Z,11.87
2024-02-11T09:57:16.955Z,11.43
2024-02-11T09:59:43.568Z,10.99
2024-02-11T10:02:15.374Z,11.62
2024-02-11T10:04:44.599Z,11.69
2024-02-11T10:07:20.278Z,11.67
2024-02-11T10:09:48.533Z,11.40
2024-02-11T10:12:19.193Z,11.12
2024-02-11T10:14:53.231Z,11.42
2024-02-11T10:17:20.693Z,11.21
2024-02-11T10:19:47.640Z,10.88
2024-02-11T10:22:24.068Z,11.45
2024-02-11T10:24:54.897Z,11.20
2024-02-11T10:27:21.481Z,10.79
2024-02-11T10:29:48.764Z,11.00
2024-02-11T10:32:16.058Z,10.97
2024-02-11T10:34:43.751Z,10.68
2024-02-11T10:37:11.424Z,11.14
2024-02-11T10:39:39.443Z,10.86
2024-02-11T10:42:07.968Z,10.61
2024-02-11T10:44:34.670Z,10.63
2024-02-11T10:47:01.586Z,10.53
2024-02-11T10:49:28.379Z,10.91
2024-02-11T10:52:01.111Z,10.69
2024-02-11T10:54:33.426Z,10.65
2024-02-11T10:57:05.953Z,10.17
2024-02-11T10:59:38.722Z,10.30
2024-02-11T11:02:06.966Z,10.29
2024-02-11T11:04:34.894Z,11.26
2024-02-11T11:07:03.276Z,11.60
2024-02-11T11:09:30.905Z,11.13
2024-02-11T11:12:09.035Z,10.11
2024-02-11T11:14:43.273Z,10.10
2024-02-11T11:17:19.220Z,10.41
2024-02-11T11:19:49.769Z,10.53
2024-02-11T11:22:28.015Z,11.03
2024-02-11T11:24:55.113Z,11.38
2024-02-11T11:27:22.840Z,12.31
2024-02-11T11:29:50.067Z,11.84
2024-02-11T11:32:21.938Z,11.50
2024-02-11T11:34:49.232Z,11.98
2024-02-11T11:37:16.835Z,11.72
2024-02-11T11:39:46.816Z,11.24
2024-02-11T11:42:13.833Z,11.21
2024-02-11T11:44:41.954Z,11.67
2024-02-11T11:47:09.041Z,12.48
2024-02-11T11:49:37.312Z,12.07
2024-02-11T11:52:04.612Z,11.79
2024-02-11T11:54:32.152Z,12.10
2024-02-11T11:56:59.525Z,11.96
2024-02-11T11:59:26.726Z,11.80
2024-02-11T12:01:54.093Z,12.51
2024-02-11T12:04:21.250Z,12.50
2024-02-11T12:06:48.595Z,12.00
2024-02-11T12:09:15.636Z,12.06
2024-02-11T12:11:42.698Z,11.52
2024-02-11T12:14:10.427Z,11.52
2024-02-11T12:16:37.715Z,10.53
2024-02-11T12:19:05.684Z,10.38
2024-02-11T12:21:35.466Z,11.06
2024-02-11T12:24:05.342Z,10.37
2024-02-11T12:26:33.738Z,10.12
2024-02-11T12:29:01.152Z,9.96
2024-02-11T12:31:28.636Z,9.41
2024-02-11T12:33:56.107Z,9.98
2024-02-11T12:36:23.110Z,9.86
2024-02-11T12:38:52.785Z,9.34
2024-02-11T12:41:20.600Z,12.48
2024-02-11T12:43:51.446Z,21.96
2024-02-11T12:46:18.268Z,20.42
2024-02-11T12:48:47.033Z,22.58
2024-02-11T12:51:19.376Z,10.70
2024-02-11T12:53:47.670Z,9.60
2024-02-11T12:56:15.718Z,8.94
2024-02-11T12:58:43.647Z,9.27
2024-02-11T13:01:12.126Z,9.38
2024-02-11T13:03:43.060Z,9.30
2024-02-11T13:06:10.573Z,8.95
2024-02-11T13:08:37.644Z,8.47
2024-02-11T13:11:07.017Z,8.58
2024-02-11T13:13:35.468Z,8.25
2024-02-11T13:16:02.771Z,8.05
2024-02-11T13:18:29.749Z,8.58
2024-02-11T13:20:58.610Z,7.29
2024-02-11T13:23:25.565Z,7.59
2024-02-11T13:25:57.028Z,7.49
2024-02-11T13:28:23.737Z,7.90
2024-02-11T13:30:54.433Z,7.73
2024-02-11T13:33:24.220Z,7.50
2024-02-11T13:35:52.297Z,7.76
2024-02-11T13:38:23.216Z,7.30
2024-02-11T13:40:50.194Z,7.13
2024-02-11T13:43:16.839Z,6.97
2024-02-11T13:45:43.502Z,6.63
2024-02-11T13:48:11.622Z,7.50
2024-02-11T13:50:38.601Z,6.93
2024-02-11T13:53:05.976Z,7.06
2024-02-11T13:55:32.766Z,6.66
2024-02-11T13:58:01.100Z,6.99
2024-02-11T14:00:27.923Z,6.60
2024-02-11T14:02:54.721Z,7.59
2024-02-11T14:05:21.499Z,7.37
2024-02-11T14:07:50.439Z,6.61
2024-02-11T14:10:17.096Z,6.23
2024-02-11T14:12:46.652Z,5.09
2024-02-11T14:15:15.944Z,4.63
2024-02-11T14:17:49.402Z,4.19
2024-02-11T14:20:17.542Z,4.28
2024-02-11T14:22:44.667Z,4.13
2024-02-11T14:25:19.818Z,5.02
2024-02-11T14:27:48.792Z,4.45
2024-02-11T14:30:17.058Z,4.37
2024-02-11T14:32:44.113Z,5.04
2024-02-11T14:35:14.448Z,4.01
2024-02-11T14:37:44.818Z,3.81
2024-02-11T14:40:14.021Z,4.07
2024-02-11T14:42:41.828Z,4.15
2024-02-11T14:45:12.128Z,3.55
2024-02-11T14:47:40.238Z,3.32
2024-02-11T14:50:09.824Z,3.36
2024-02-11T14:52:37.460Z,5.27
2024-02-11T14:55:04.397Z,9.19
2024-02-11T14:57:32.262Z,10.52
2024-02-11T14:59:59.255Z,9.34
2024-02-11T15:02:28.784Z,9.99
2024-02-11T15:04:56.178Z,7.99
2024-02-11T15:07:22.945Z,5.09
2024-02-11T15:09:54.686Z,3.44
2024-02-11T15:12:21.312Z,3.25
2024-02-11T15:14:51.512Z,2.92
2024-02-11T15:17:18.777Z,3.24
2024-02-11T15:19:47.196Z,3.10
2024-02-11T15:22:14.859Z,3.01
2024-02-11T15:24:43.107Z,3.04
2024-02-11T15:27:10.065Z,3.16
2024-02-11T15:29:36.935Z,5.01
2024-02-11T15:32:04.063Z,4.09
2024-02-11T15:34:31.002Z,3.43
2024-02-11T15:36:57.919Z,3.64
2024-02-11T15:39:25.149Z,3.35
2024-02-11T15:41:54.852Z,3.16
2024-02-11T15:44:22.271Z,2.69
2024-02-11T15:46:49.563Z,3.13
2024-02-11T15:49:16.387Z,2.95
2024-02-11T15:51:48.098Z,3.04
2024-02-11T15:54:16.110Z,3.57
2024-02-11T15:56:43.505Z,3.83
2024-02-11T15:59:10.916Z,3.53
2024-02-11T16:01:37.655Z,3.64
2024-02-11T16:04:06.018Z,4.09
2024-02-11T16:06:33.351Z,4.12
2024-02-11T16:09:00.330Z,3.83
2024-02-11T16:11:27.529Z,3.57
2024-02-11T16:13:54.384Z,4.18
2024-02-11T16:16:22.490Z,3.67
2024-02-11T16:18:50.397Z,3.54
2024-02-11T16:21:18.916Z,3.00
2024-02-11T16:23:48.509Z,3.15
2024-02-11T16:26:18.409Z,3.23
2024-02-11T16:28:45.821Z,3.42
2024-02-11T16:31:14.251Z,3.53
2024-02-11T16:33:41.412Z,3.38
2024-02-11T16:36:08.352Z,3.54
2024-02-11T16:38:35.413Z,3.25
2024-02-11T16:41:02.173Z,3.17
2024-02-11T16:43:28.874Z,3.63
2024-02-11T16:45:55.571Z,3.84
2024-02-11T16:48:24.015Z,4.82
2024-02-11T16:50:50.898Z,7.08
2024-02-11T16:53:17.678Z,11.56
2024-02-11T16:55:44.409Z,52.56
2024-02-11T16:58:11.089Z,59.50
2024-02-11T17:00:37.809Z,57.92
2024-02-11T17:03:05.892Z,28.27
2024-02-11T17:05:32.851Z,16.38
2024-02-11T17:07:59.754Z,15.28
2024-02-11T17:10:26.510Z,12.11
2024-02-11T17:12:53.382Z,10.99
2024-02-11T17:15:19.972Z,10.60
2024-02-11T17:17:46.745Z,11.54
2024-02-11T17:20:21.703Z,14.68
2024-02-11T17:22:48.984Z,9.75
2024-02-11T17:25:18.244Z,7.15
2024-02-11T17:27:45.316Z,6.33
2024-02-11T17:30:12.612Z,6.83
2024-02-11T17:32:48.206Z,7.58
2024-02-11T17:35:19.605Z,9.35
2024-02-11T17:37:46.592Z,10.29
2024-02-11T17:40:13.363Z,9.23
2024-02-11T17:42:40.375Z,7.45
2024-02-11T17:45:10.418Z,6.19
2024-02-11T17:47:37.828Z,5.92
2024-02-11T17:50:11.964Z,5.36
2024-02-11T17:52:42.382Z,5.72
2024-02-11T17:55:09.989Z,6.94
2024-02-11T17:57:42.102Z,8.37
2024-02-11T18:00:11.080Z,8.48
2024-02-11T18:02:43.393Z,8.51
2024-02-11T18:05:14.383Z,9.04
2024-02-11T18:07:44.811Z,9.47
2024-02-11T18:10:12.989Z,8.24
2024-02-11T18:12:45.053Z,8.92
2024-02-11T18:15:13.598Z,9.15
2024-02-11T18:17:42.470Z,7.37
2024-02-11T18:20:09.630Z,6.60
2024-02-11T18:22:36.852Z,5.89
2024-02-11T18:25:03.551Z,5.89
2024-02-11T18:27:30.128Z,6.23
2024-02-11T18:29:56.747Z,6.16
2024-02-11T18:32:24.333Z,5.61
2024-02-11T18:34:51.790Z,5.40
2024-02-11T18:37:20.640Z,6.13
2024-02-11T18:39:51.335Z,5.80
2024-02-11T18:42:18.624Z,7.00
2024-02-11T18:44:45.799Z,6.62
2024-02-11T18:47:12.655Z,6.27
2024-02-11T18:49:39.942Z,5.75
2024-02-11T18:52:09.841Z,6.23
2024-02-11T18:54:37.336Z,6.29
2024-02-11T18:57:08.754Z,5.61
2024-02-11T18:59:35.413Z,8.81
2024-02-11T19:02:02.261Z,13.20
2024-02-11T19:04:28.918Z,16.08
2024-02-11T19:06:55.580Z,17.28
2024-02-11T19:09:25.125Z,13.09
2024-02-11T19:11:54.051Z,11.96
2024-02-11T19:14:20.986Z,11.20
2024-02-11T19:16:47.697Z,10.62
2024-02-11T19:19:14.688Z,10.41
2024-02-11T19:21:43.408Z,11.27
2024-02-11T19:24:10.344Z,15.76
2024-02-11T19:26:37.413Z,19.25
2024-02-11T19:29:04.782Z,23.22
2024-02-11T19:31:35.839Z,25.68
2024-02-11T19:34:03.249Z,18.59
2024-02-11T19:36:32.098Z,21.97
2024-02-11T19:39:01.396Z,16.83
2024-02-11T19:41:28.264Z,14.93
2024-02-11T19:43:56.086Z,16.61
2024-02-11T19:46:22.754Z,15.22
2024-02-11T19:48:50.253Z,16.79
2024-02-11T19:51:17.127Z,18.48
2024-02-11T19:53:44.268Z,14.84
2024-02-11T19:56:12.989Z,11.33
2024-02-11T19:58:41.071Z,9.01
2024-02-11T20:01:08.573Z,8.17
2024-02-11T20:03:36.060Z,9.18
2024-02-11T20:06:04.019Z,10.79
2024-02-11T20:08:30.741Z,11.64
2024-02-11T20:10:57.420Z,9.07
2024-02-11T20:13:24.129Z,9.60
2024-02-11T20:15:51.800Z,9.83
2024-02-11T20:18:18.572Z,10.88
2024-02-11T20:20:50.890Z,11.38
2024-02-11T20:23:19.642Z,12.50
2024-02-11T20:25:47.794Z,12.48
2024-02-11T20:28:15.351Z,10.50
2024-02-11T20:30:42.620Z,9.27
2024-02-11T20:33:10.972Z,9.34
2024-02-11T20:35:39.580Z,9.51
2024-02-11T20:38:07.005Z,9.62
2024-02-11T20:40:33.935Z,9.31
2024-02-11T20:43:00.718Z,9.12
2024-02-11T20:45:27.416Z,9.80
2024-02-11T20:47:55.665Z,9.75
2024-02-11T20:50:22.705Z,10.38
2024-02-11T20:52:49.563Z,10.32
2024-02-11T20:55:17.096Z,8.99
2024-02-11T20:57:45.025Z,8.65
2024-02-11T21:00:13.179Z,8.86
2024-02-11T21:02:40.806Z,8.77
2024-02-11T21:05:07.711Z,8.22
2024-02-11T21:07:34.384Z,8.61
2024-02-11T21:10:01.444Z,8.34
2024-02-11T21:12:28.348Z,8.56
2024-02-11T21:14:55.152Z,8.48
2024-02-11T21:17:22.163Z,7.91
2024-02-11T21:19:48.978Z,8.07
2024-02-11T21:22:16.759Z,8.52
2024-02-11T21:24:46.543Z,8.38
2024-02-11T21:27:14.907Z,8.72
2024-02-11T21:29:42.640Z,8.34
2024-02-11T21:32:09.256Z,8.61
2024-02-11T21:34:36.711Z,8.44
2024-02-11T21:37:03.327Z,8.66
2024-02-11T21:39:29.958Z,8.67
2024-02-11T21:41:56.570Z,8.17
2024-02-11T21:44:24.831Z,9.29
2024-02-11T21:46:52.465Z,11.23
2024-02-11T21:49:19.146Z,12.53
2024-02-11T21:51:46.879Z,11.77
2024-02-11T21:54:18.038Z,11.59
2024-02-11T21:56:45.202Z,10.47
2024-02-11T21:59:11.953Z,10.14
2024-02-11T22:01:38.600Z,9.43
2024-02-11T22:04:07.380Z,9.70
2024-02-11T22:06:34.223Z,9.23
2024-02-11T22:09:01.444Z,9.44
2024-02-11T22:11:28.187Z,9.06
2024-02-11T22:13:55.306Z,8.91
2024-02-11T22:16:21.997Z,8.89
2024-02-11T22:18:49.816Z,8.57
2024-02-11T22:21:17.959Z,8.60
2024-02-11T22:23:45.849Z,8.16
2024-02-11T22:26:12.624Z,7.76
2024-02-11T22:28:39.260Z,7.83
2024-02-11T22:31:05.889Z,8.34
2024-02-11T22:33:32.715Z,9.10
2024-02-11T22:35:59.957Z,9.15
2024-02-11T22:38:27.996Z,9.07
2024-02-11T22:40:56.338Z,10.07
2024-02-11T22:43:25.692Z,10.13
2024-02-11T22:45:53.340Z,10.09
2024-02-11T22:48:20.376Z,9.78
2024-02-11T22:50:47.366Z,10.01
2024-02-11T22:53:14.286Z,9.55
2024-02-11T22:55:40.876Z,9.97
2024-02-11T22:58:08.790Z,9.55
2024-02-11T23:00:35.994Z,9.79
2024-02-11T23:03:08.007Z,10.45
2024-02-11T23:05:37.327Z,11.19
2024-02-11T23:08:04.971Z,11.28
2024-02-11T23:10:32.450Z,11.79
2024-02-11T23:13:02.048Z,12.38
2024-02-11T23:15:32.184Z,12.98
2024-02-11T23:18:00.748Z,13.56
2024-02-11T23:20:27.537Z,13.65
2024-02-11T23:22:54.886Z,13.77
2024-02-11T23:25:23.197Z,14.30
2024-02-11T23:27:50.586Z,12.96
2024-02-11T23:30:17.942Z,13.35
2024-02-11T23:32:45.953Z,14.79
2024-02-11T23:35:14.253Z,15.04
2024-02-11T23:37:42.315Z,15.30
2024-02-11T23:40:13.563Z,15.01
2024-02-11T23:42:43.391Z,15.16
2024-02-11T23:45:10.557Z,15.45
2024-02-11T23:47:37.402Z,14.32
2024-02-11T23:50:05.682Z,14.33
2024-02-11T23:52:32.500Z,14.58
2024-02-11T23:54:59.183Z,13.76
2024-02-11T23:57:25.835Z,14.92
2024-02-11T23:59:53.581Z,14.37
